• Join FlightAware (Why Join?)
  • Login
  • US Flag 
04:17AM EDT


 

Airport Tracker/Info


-or-


 

Live Flight TrackerFlight Track Log ✈ CES2525 ✈ 02-May-2014 ✈ ZHHH / WUH - ZSLG / LYG

Flight Track Log - Related Links

Times and Time Zones

All times are in EDT time to prevent confusion due to time zone crossing. See the CES2525 flight status page for this flight to view local times or setup timezone preferences in your user account.

Time Position Orientation Groundspeed Altitude Reporting Facility
EDT Latitude Longitude Course Direction KTS MPH feet Rate Location/Type
11:21PM 32.4269 116.1578 45° Northeast  Level Estimated
11:22PM 32.4872 116.2313 46° Northeast  Level Estimated
11:23PM 32.5474 116.3050 46° Northeast  Level Estimated
11:24PM 32.6076 116.3787 46° Northeast  Level Estimated
11:25PM 32.6678 116.4526 46° Northeast  Level Estimated
11:26PM 32.7279 116.5265 46° Northeast  Level Estimated
11:27PM 32.7879 116.6006 46° Northeast  Level Estimated
11:28PM 32.8479 116.6747 46° Northeast  Level Estimated
11:29PM 32.9079 116.7489 46° Northeast  Level Estimated
11:30PM 32.9678 116.8233 46° Northeast  Level Estimated
11:31PM 33.0277 116.8978 46° Northeast  Level Estimated
11:32PM 33.0876 116.9723 46° Northeast  Level Estimated
11:33PM 33.1474 117.0470 46° Northeast  Level Estimated
11:34PM 33.2071 117.1217 46° Northeast  Level Estimated
11:35PM 33.2668 117.1966 46° Northeast  Level Estimated
11:36PM 33.3265 117.2715 46° Northeast  Level Estimated
11:37PM 33.3861 117.3466 46° Northeast  Level Estimated
11:38PM 33.4457 117.4217 46° Northeast  Level Estimated
11:39PM 33.5052 117.4970 47° Northeast  Level Estimated
11:40PM 33.5647 117.5724 47° Northeast  Level Estimated
11:41PM 33.6241 117.6479 47° Northeast  Level Estimated
11:42PM 33.6835 117.7234 47° Northeast  Level Estimated
11:43PM 33.7429 117.7991 47° Northeast  Level Estimated
11:44PM 33.8022 117.8749 47° Northeast  Level Estimated
11:45PM 33.8614 117.9508 47° Northeast  Level Estimated
11:46PM 33.9206 118.0268 47° Northeast  Level Estimated
11:47PM 33.9798 118.1029 47° Northeast  Level Estimated
11:48PM 34.0389 118.1791 47° Northeast  Level Estimated
11:49PM 34.0980 118.2554 47° Northeast  Level Estimated
11:50PM 34.1570 118.3318 47° Northeast  Level Estimated
11:51PM 34.2160 118.4084 47° Northeast  Level Estimated
11:52PM 34.2749 118.4850 47° Northeast  Level Estimated
11:53PM 34.3338 118.5617 47° Northeast  Level Estimated
11:54PM 34.3926 118.6386 47° Northeast  Level Estimated
11:55PM 34.4514 118.7156 47° Northeast  Level Estimated
11:56PM 34.5101 118.7926 47° Northeast  Level Estimated
11:57PM 34.5688 118.8698 47° Northeast  Level Estimated
11:58PM 34.5717 118.8736 47° Northeast  Level Estimated
11:59PM 34.5717 118.8736 North  Level Estimated
12:00AM 34.5717 118.8736 North  Level Estimated
12:01AM 34.5717 118.8736 North  Level Estimated
12:02AM 34.5717 118.8736 North  Level Estimated
12:03AM 34.5717 118.8736 North  Level Estimated
12:04AM 34.5717 118.8736 North  Level Estimated
12:05AM 34.5717 118.8736 North  Level Estimated
12:06AM 34.5717 118.8736 North  Level Estimated
12:07AM 34.5717 118.8736 North  Level Estimated
12:08AM 34.5717 118.8736 North  Level Estimated
12:09AM 34.5717 118.8736 North  Level Estimated
12:10AM 34.5717 118.8736 North  Level Estimated
12:11AM 34.5717 118.8736 North  Level Estimated
12:12AM 34.5717 118.8736 North  Level Estimated
12:13AM 34.5717 118.8736 North  Level Estimated